sensor_id;sensor_type;location;lat;lon;timestamp;pressure;altitude;pressure_sealevel;temperature;humidity
38852;BME280;24605;50.092;9.182;2023-06-04T00:00:57;98096.81;;;14.10;40.71
38852;BME280;24605;50.092;9.182;2023-06-04T00:03:24;98088.91;;;14.10;40.13
38852;BME280;24605;50.092;9.182;2023-06-04T00:05:50;98095.41;;;14.14;40.47
38852;BME280;24605;50.092;9.182;2023-06-04T00:08:17;98088.94;;;14.17;40.15
38852;BME280;24605;50.092;9.182;2023-06-04T00:10:43;98092.09;;;14.05;40.67
38852;BME280;24605;50.092;9.182;2023-06-04T00:13:11;98085.56;;;14.01;40.52
38852;BME280;24605;50.092;9.182;2023-06-04T00:15:38;98090.91;;;14.08;40.29
38852;BME280;24605;50.092;9.182;2023-06-04T00:18:04;98091.03;;;14.00;40.94
38852;BME280;24605;50.092;9.182;2023-06-04T00:20:31;98084.31;;;13.97;40.50
38852;BME280;24605;50.092;9.182;2023-06-04T00:22:57;98092.66;;;14.01;40.24
38852;BME280;24605;50.092;9.182;2023-06-04T00:25:24;98084.31;;;13.97;40.41
38852;BME280;24605;50.092;9.182;2023-06-04T00:27:51;98091.50;;;13.88;40.65
38852;BME280;24605;50.092;9.182;2023-06-04T00:30:19;98087.44;;;13.86;40.39
38852;BME280;24605;50.092;9.182;2023-06-04T00:32:45;98091.69;;;13.87;40.93
38852;BME280;24605;50.092;9.182;2023-06-04T00:35:13;98092.88;;;13.84;40.43
38852;BME280;24605;50.092;9.182;2023-06-04T00:37:39;98083.63;;;13.73;41.05
38852;BME280;24605;50.092;9.182;2023-06-04T00:40:06;98094.00;;;13.75;40.74
38852;BME280;24605;50.092;9.182;2023-06-04T00:42:33;98097.88;;;13.79;41.00
38852;BME280;24605;50.092;9.182;2023-06-04T00:45:00;98098.81;;;13.71;41.11
38852;BME280;24605;50.092;9.182;2023-06-04T00:47:27;98105.25;;;13.69;41.18
38852;BME280;24605;50.092;9.182;2023-06-04T00:49:56;98097.38;;;13.69;41.48
38852;BME280;24605;50.092;9.182;2023-06-04T00:52:24;98082.31;;;13.47;41.60
38852;BME280;24605;50.092;9.182;2023-06-04T00:54:51;98103.72;;;13.59;41.38
38852;BME280;24605;50.092;9.182;2023-06-04T00:57:20;98104.28;;;13.55;41.82
38852;BME280;24605;50.092;9.182;2023-06-04T00:59:46;98104.69;;;13.52;41.74
38852;BME280;24605;50.092;9.182;2023-06-04T01:02:14;98100.66;;;13.56;41.67
38852;BME280;24605;50.092;9.182;2023-06-04T01:04:46;98093.28;;;13.36;41.81
38852;BME280;24605;50.092;9.182;2023-06-04T01:07:16;98091.94;;;13.25;42.79
38852;BME280;24605;50.092;9.182;2023-06-04T01:09:44;98093.94;;;13.23;42.77
38852;BME280;24605;50.092;9.182;2023-06-04T01:12:11;98092.03;;;13.17;42.51
38852;BME280;24605;50.092;9.182;2023-06-04T01:14:38;98097.50;;;13.15;42.76
38852;BME280;24605;50.092;9.182;2023-06-04T01:17:08;98101.22;;;13.21;42.42
38852;BME280;24605;50.092;9.182;2023-06-04T01:20:00;98096.94;;;13.05;42.93
38852;BME280;24605;50.092;9.182;2023-06-04T01:22:37;98096.28;;;13.03;42.61
38852;BME280;24605;50.092;9.182;2023-06-04T01:25:05;98095.66;;;13.01;42.89
38852;BME280;24605;50.092;9.182;2023-06-04T01:27:36;98092.31;;;13.07;42.65
38852;BME280;24605;50.092;9.182;2023-06-04T01:30:07;98091.88;;;13.04;42.59
38852;BME280;24605;50.092;9.182;2023-06-04T01:32:34;98096.03;;;13.13;42.81
38852;BME280;24605;50.092;9.182;2023-06-04T01:35:02;98097.56;;;12.92;43.07
38852;BME280;24605;50.092;9.182;2023-06-04T01:37:28;98095.75;;;12.93;42.98
38852;BME280;24605;50.092;9.182;2023-06-04T01:39:55;98093.47;;;12.75;43.67
38852;BME280;24605;50.092;9.182;2023-06-04T01:42:21;98097.13;;;12.89;42.85
38852;BME280;24605;50.092;9.182;2023-06-04T01:44:48;98091.19;;;12.72;44.12
38852;BME280;24605;50.092;9.182;2023-06-04T01:47:14;98084.97;;;12.49;45.30
38852;BME280;24605;50.092;9.182;2023-06-04T01:49:41;98096.38;;;12.42;45.49
38852;BME280;24605;50.092;9.182;2023-06-04T01:52:08;98097.78;;;12.29;45.74
38852;BME280;24605;50.092;9.182;2023-06-04T01:54:36;98097.97;;;12.28;44.76
38852;BME280;24605;50.092;9.182;2023-06-04T01:57:04;98063.94;;;12.11;44.95
38852;BME280;24605;50.092;9.182;2023-06-04T01:59:30;98097.47;;;12.47;43.72
38852;BME280;24605;50.092;9.182;2023-06-04T02:01:58;98090.00;;;12.59;43.59
38852;BME280;24605;50.092;9.182;2023-06-04T02:04:27;98086.09;;;12.70;42.73
38852;BME280;24605;50.092;9.182;2023-06-04T02:06:53;98095.09;;;12.76;42.91
38852;BME280;24605;50.092;9.182;2023-06-04T02:09:22;98095.09;;;12.76;42.88
38852;BME280;24605;50.092;9.182;2023-06-04T02:11:48;98098.53;;;12.76;42.96
38852;BME280;24605;50.092;9.182;2023-06-04T02:14:15;98094.09;;;12.77;42.06
38852;BME280;24605;50.092;9.182;2023-06-04T02:16:41;98095.94;;;12.91;41.80
38852;BME280;24605;50.092;9.182;2023-06-04T02:19:08;98099.09;;;12.87;42.44
38852;BME280;24605;50.092;9.182;2023-06-04T02:21:38;98103.56;;;12.86;42.44
38852;BME280;24605;50.092;9.182;2023-06-04T02:24:04;98094.84;;;12.85;42.58
38852;BME280;24605;50.092;9.182;2023-06-04T02:26:32;98096.09;;;12.75;42.88
38852;BME280;24605;50.092;9.182;2023-06-04T02:28:58;98099.72;;;12.74;42.32
38852;BME280;24605;50.092;9.182;2023-06-04T02:31:25;98095.91;;;12.76;42.41
38852;BME280;24605;50.092;9.182;2023-06-04T02:33:51;98096.16;;;12.66;42.94
38852;BME280;24605;50.092;9.182;2023-06-04T02:36:18;98094.25;;;12.60;43.09
38852;BME280;24605;50.092;9.182;2023-06-04T02:38:44;98098.34;;;12.63;43.38
38852;BME280;24605;50.092;9.182;2023-06-04T02:41:11;98096.59;;;12.55;43.32
38852;BME280;24605;50.092;9.182;2023-06-04T02:43:38;98100.28;;;12.46;43.47
38852;BME280;24605;50.092;9.182;2023-06-04T02:46:05;98097.25;;;12.34;44.03
38852;BME280;24605;50.092;9.182;2023-06-04T02:48:32;98100.22;;;12.31;43.67
38852;BME280;24605;50.092;9.182;2023-06-04T02:50:58;98104.16;;;12.12;44.16
38852;BME280;24605;50.092;9.182;2023-06-04T02:53:26;98100.81;;;12.18;44.31
38852;BME280;24605;50.092;9.182;2023-06-04T02:55:52;98102.53;;;12.11;44.46
38852;BME280;24605;50.092;9.182;2023-06-04T02:58:19;98104.69;;;12.07;44.58
38852;BME280;24605;50.092;9.182;2023-06-04T03:00:48;98103.94;;;11.90;45.88
38852;BME280;24605;50.092;9.182;2023-06-04T03:03:14;98102.28;;;11.97;44.44
38852;BME280;24605;50.092;9.182;2023-06-04T03:05:41;98109.00;;;12.00;44.38
38852;BME280;24605;50.092;9.182;2023-06-04T03:08:08;98102.28;;;11.97;43.98
38852;BME280;24605;50.092;9.182;2023-06-04T03:10:34;98100.72;;;12.11;43.58
38852;BME280;24605;50.092;9.182;2023-06-04T03:13:01;98101.06;;;12.08;43.57
38852;BME280;24605;50.092;9.182;2023-06-04T03:15:27;98095.81;;;12.08;43.43
38852;BME280;24605;50.092;9.182;2023-06-04T03:17:55;98107.06;;;12.17;43.51
38852;BME280;24605;50.092;9.182;2023-06-04T03:20:22;98108.25;;;12.14;43.75
38852;BME280;24605;50.092;9.182;2023-06-04T03:22:49;98105.91;;;12.19;43.14
38852;BME280;24605;50.092;9.182;2023-06-04T03:25:16;98112.63;;;12.22;43.18
38852;BME280;24605;50.092;9.182;2023-06-04T03:27:42;98111.69;;;12.15;43.31
38852;BME280;24605;50.092;9.182;2023-06-04T03:30:10;98106.00;;;12.26;42.89
38852;BME280;24605;50.092;9.182;2023-06-04T03:32:36;98107.50;;;12.29;42.54
38852;BME280;24605;50.092;9.182;2023-06-04T03:35:05;98106.44;;;12.38;42.09
38852;BME280;24605;50.092;9.182;2023-06-04T03:37:32;98056.84;;;12.12;41.76
38852;BME280;24605;50.092;9.182;2023-06-04T03:39:58;98104.38;;;12.48;41.57
38852;BME280;24605;50.092;9.182;2023-06-04T03:42:25;98107.66;;;12.50;41.74
38852;BME280;24605;50.092;9.182;2023-06-04T03:44:52;98099.22;;;12.55;40.99
38852;BME280;24605;50.092;9.182;2023-06-04T03:47:18;98103.75;;;12.61;41.08
38852;BME280;24605;50.092;9.182;2023-06-04T03:49:45;98106.56;;;12.60;41.14
38852;BME280;24605;50.092;9.182;2023-06-04T03:52:12;98103.53;;;12.71;40.83
38852;BME280;24605;50.092;9.182;2023-06-04T03:54:39;98105.69;;;12.67;40.66
38852;BME280;24605;50.092;9.182;2023-06-04T03:57:05;98104.88;;;12.67;40.76
38852;BME280;24605;50.092;9.182;2023-06-04T03:59:32;98106.63;;;12.75;40.32
38852;BME280;24605;50.092;9.182;2023-06-04T04:01:58;98106.53;;;12.83;40.34
38852;BME280;24605;50.092;9.182;2023-06-04T04:04:25;98102.63;;;12.79;40.69
38852;BME280;24605;50.092;9.182;2023-06-04T04:06:51;98107.88;;;12.79;40.80
38852;BME280;24605;50.092;9.182;2023-06-04T04:09:19;98108.81;;;12.86;40.58
38852;BME280;24605;50.092;9.182;2023-06-04T04:11:45;98104.53;;;12.70;41.24
38852;BME280;24605;50.092;9.182;2023-06-04T04:14:12;98105.31;;;12.70;41.82
38852;BME280;24605;50.092;9.182;2023-06-04T04:16:38;98105.72;;;12.82;40.92
38852;BME280;24605;50.092;9.182;2023-06-04T04:19:05;98105.66;;;12.91;40.78
38852;BME280;24605;50.092;9.182;2023-06-04T04:21:33;98105.13;;;12.95;40.88
38852;BME280;24605;50.092;9.182;2023-06-04T04:24:01;98106.72;;;12.96;40.60
38852;BME280;24605;50.092;9.182;2023-06-04T04:26:29;98112.47;;;13.00;40.31
38852;BME280;24605;50.092;9.182;2023-06-04T04:28:56;98113.81;;;13.11;40.03
38852;BME280;24605;50.092;9.182;2023-06-04T04:31:23;98111.00;;;13.12;40.46
38852;BME280;24605;50.092;9.182;2023-06-04T04:33:50;98119.81;;;13.20;39.91
38852;BME280;24605;50.092;9.182;2023-06-04T04:36:17;98107.91;;;13.09;40.03
38852;BME280;24605;50.092;9.182;2023-06-04T04:38:44;98128.88;;;13.17;40.20
38852;BME280;24605;50.092;9.182;2023-06-04T04:41:11;98120.16;;;13.31;40.10
38852;BME280;24605;50.092;9.182;2023-06-04T04:43:39;98120.09;;;13.25;40.71
38852;BME280;24605;50.092;9.182;2023-06-04T04:46:06;98118.63;;;13.37;40.41
38852;BME280;24605;50.092;9.182;2023-06-04T04:48:33;98129.63;;;13.56;39.88
38852;BME280;24605;50.092;9.182;2023-06-04T04:50:59;98125.44;;;13.61;39.44
38852;BME280;24605;50.092;9.182;2023-06-04T04:53:26;98120.81;;;13.63;39.42
38852;BME280;24605;50.092;9.182;2023-06-04T04:55:52;98114.34;;;13.81;39.16
38852;BME280;24605;50.092;9.182;2023-06-04T04:58:19;98129.13;;;13.97;39.97
38852;BME280;24605;50.092;9.182;2023-06-04T05:00:47;98138.78;;;14.12;39.25
38852;BME280;24605;50.092;9.182;2023-06-04T05:03:13;98137.84;;;14.19;39.22
38852;BME280;24605;50.092;9.182;2023-06-04T05:05:40;98128.50;;;14.17;39.08
38852;BME280;24605;50.092;9.182;2023-06-04T05:08:06;98138.47;;;14.21;39.17
38852;BME280;24605;50.092;9.182;2023-06-04T05:10:33;98140.50;;;14.41;39.13
38852;BME280;24605;50.092;9.182;2023-06-04T05:13:01;98140.13;;;14.44;38.97
38852;BME280;24605;50.092;9.182;2023-06-04T05:15:27;98144.50;;;14.58;38.28
38852;BME280;24605;50.092;9.182;2023-06-04T05:17:56;98141.75;;;14.67;38.65
38852;BME280;24605;50.092;9.182;2023-06-04T05:20:23;98146.34;;;14.80;38.78
38852;BME280;24605;50.092;9.182;2023-06-04T05:22:50;98149.97;;;14.79;38.35
38852;BME280;24605;50.092;9.182;2023-06-04T05:25:17;98147.88;;;14.96;38.72
38852;BME280;24605;50.092;9.182;2023-06-04T05:27:43;98152.31;;;14.95;38.66
38852;BME280;24605;50.092;9.182;2023-06-04T05:30:11;98141.44;;;15.05;38.52
38852;BME280;24605;50.092;9.182;2023-06-04T05:32:38;98158.16;;;15.12;38.72
38852;BME280;24605;50.092;9.182;2023-06-04T05:35:08;98157.31;;;15.12;38.85
38852;BME280;24605;50.092;9.182;2023-06-04T05:37:35;98159.44;;;15.23;38.40
38852;BME280;24605;50.092;9.182;2023-06-04T05:40:03;98160.72;;;15.34;38.64
38852;BME280;24605;50.092;9.182;2023-06-04T05:42:30;98154.47;;;15.42;37.38
38852;BME280;24605;50.092;9.182;2023-06-04T05:44:57;98161.81;;;15.46;37.42
38852;BME280;24605;50.092;9.182;2023-06-04T05:47:23;98164.28;;;15.55;37.65
38852;BME280;24605;50.092;9.182;2023-06-04T05:49:50;98163.22;;;15.49;37.83
38852;BME280;24605;50.092;9.182;2023-06-04T05:52:18;98164.13;;;15.63;37.86
38852;BME280;24605;50.092;9.182;2023-06-04T05:54:44;98161.50;;;15.70;37.71
38852;BME280;24605;50.092;9.182;2023-06-04T05:57:11;98167.44;;;15.72;38.30
38852;BME280;24605;50.092;9.182;2023-06-04T05:59:37;98156.53;;;15.88;37.85
38852;BME280;24605;50.092;9.182;2023-06-04T06:02:04;98158.19;;;16.03;37.19
38852;BME280;24605;50.092;9.182;2023-06-04T06:04:31;98168.22;;;15.72;38.41
38852;BME280;24605;50.092;9.182;2023-06-04T06:06:57;98166.31;;;15.94;36.88
38852;BME280;24605;50.092;9.182;2023-06-04T06:09:25;98164.47;;;15.88;38.38
38852;BME280;24605;50.092;9.182;2023-06-04T06:11:52;98163.91;;;16.06;37.90
38852;BME280;24605;50.092;9.182;2023-06-04T06:14:18;98171.09;;;16.26;37.22
38852;BME280;24605;50.092;9.182;2023-06-04T06:16:44;98167.25;;;16.42;37.20
38852;BME280;24605;50.092;9.182;2023-06-04T06:19:12;98175.19;;;16.42;37.09
38852;BME280;24605;50.092;9.182;2023-06-04T06:21:38;98175.03;;;16.70;36.62
38852;BME280;24605;50.092;9.182;2023-06-04T06:24:05;98178.50;;;16.77;37.05
38852;BME280;24605;50.092;9.182;2023-06-04T06:26:33;98191.34;;;16.87;36.51
38852;BME280;24605;50.092;9.182;2023-06-04T06:28:59;98187.06;;;17.06;37.39
38852;BME280;24605;50.092;9.182;2023-06-04T06:31:26;98181.16;;;17.18;36.36
38852;BME280;24605;50.092;9.182;2023-06-04T06:33:53;98183.56;;;17.39;35.90
38852;BME280;24605;50.092;9.182;2023-06-04T06:36:19;98184.34;;;17.53;36.13
38852;BME280;24605;50.092;9.182;2023-06-04T06:38:46;98190.25;;;17.62;36.79
38852;BME280;24605;50.092;9.182;2023-06-04T06:41:12;98181.28;;;17.57;37.21
38852;BME280;24605;50.092;9.182;2023-06-04T06:43:40;98194.94;;;17.53;37.14
38852;BME280;24605;50.092;9.182;2023-06-04T06:46:07;98200.00;;;17.68;37.44
38852;BME280;24605;50.092;9.182;2023-06-04T06:48:33;98195.69;;;17.81;36.31
38852;BME280;24605;50.092;9.182;2023-06-04T06:51:00;98199.72;;;18.04;36.31
38852;BME280;24605;50.092;9.182;2023-06-04T06:53:26;98198.63;;;17.59;36.39
38852;BME280;24605;50.092;9.182;2023-06-04T06:55:53;98171.53;;;17.37;36.68
38852;BME280;24605;50.092;9.182;2023-06-04T06:58:19;98200.81;;;17.76;36.05
38852;BME280;24605;50.092;9.182;2023-06-04T07:00:47;98205.44;;;18.00;35.25
38852;BME280;24605;50.092;9.182;2023-06-04T07:03:14;98197.69;;;17.99;34.95
38852;BME280;24605;50.092;9.182;2023-06-04T07:05:40;98211.50;;;18.14;35.31
38852;BME280;24605;50.092;9.182;2023-06-04T07:08:07;98203.38;;;18.03;34.29
38852;BME280;24605;50.092;9.182;2023-06-04T07:10:33;98216.88;;;18.01;34.28
38852;BME280;24605;50.092;9.182;2023-06-04T07:13:00;98207.16;;;18.27;34.46
38852;BME280;24605;50.092;9.182;2023-06-04T07:15:26;98195.94;;;18.25;34.36
38852;BME280;24605;50.092;9.182;2023-06-04T07:17:54;98224.09;;;18.26;34.58
38852;BME280;24605;50.092;9.182;2023-06-04T07:20:20;98221.97;;;18.41;35.49
38852;BME280;24605;50.092;9.182;2023-06-04T07:22:47;98218.22;;;18.56;34.76
38852;BME280;24605;50.092;9.182;2023-06-04T07:25:13;98221.22;;;18.27;35.70
38852;BME280;24605;50.092;9.182;2023-06-04T07:27:40;98220.03;;;18.62;34.39
38852;BME280;24605;50.092;9.182;2023-06-04T07:30:07;98217.06;;;18.77;34.17
38852;BME280;24605;50.092;9.182;2023-06-04T07:32:34;98222.59;;;18.75;33.05
38852;BME280;24605;50.092;9.182;2023-06-04T07:35:01;98221.25;;;18.91;34.51
38852;BME280;24605;50.092;9.182;2023-06-04T07:37:28;98220.84;;;18.62;33.95
38852;BME280;24605;50.092;9.182;2023-06-04T07:39:55;98219.63;;;18.90;34.50
38852;BME280;24605;50.092;9.182;2023-06-04T07:42:21;98225.56;;;19.18;34.75
38852;BME280;24605;50.092;9.182;2023-06-04T07:44:48;98219.75;;;19.28;34.03
38852;BME280;24605;50.092;9.182;2023-06-04T07:47:14;98224.13;;;18.90;34.46
38852;BME280;24605;50.092;9.182;2023-06-04T07:49:40;98225.72;;;18.91;35.27
38852;BME280;24605;50.092;9.182;2023-06-04T07:52:08;98222.47;;;19.21;34.80
38852;BME280;24605;50.092;9.182;2023-06-04T07:54:35;98228.19;;;19.43;34.48
38852;BME280;24605;50.092;9.182;2023-06-04T07:57:01;98231.81;;;19.49;33.04
38852;BME280;24605;50.092;9.182;2023-06-04T07:59:27;98227.63;;;19.60;33.37
38852;BME280;24605;50.092;9.182;2023-06-04T08:01:54;98233.03;;;19.71;33.78
38852;BME280;24605;50.092;9.182;2023-06-04T08:04:21;98225.50;;;19.68;33.80
38852;BME280;24605;50.092;9.182;2023-06-04T08:06:48;98230.59;;;19.70;33.58
38852;BME280;24605;50.092;9.182;2023-06-04T08:09:16;98223.84;;;19.49;34.40
38852;BME280;24605;50.092;9.182;2023-06-04T08:11:43;98228.63;;;19.40;34.09
38852;BME280;24605;50.092;9.182;2023-06-04T08:14:09;98226.75;;;19.22;35.12
38852;BME280;24605;50.092;9.182;2023-06-04T08:16:36;98226.00;;;19.15;33.88
38852;BME280;24605;50.092;9.182;2023-06-04T08:19:02;98224.94;;;19.41;33.31
38852;BME280;24605;50.092;9.182;2023-06-04T08:21:29;98232.75;;;19.61;32.91
38852;BME280;24605;50.092;9.182;2023-06-04T08:23:56;98231.94;;;19.79;31.41
38852;BME280;24605;50.092;9.182;2023-06-04T08:26:24;98237.84;;;19.81;32.07
38852;BME280;24605;50.092;9.182;2023-06-04T08:28:52;98240.59;;;19.93;31.85
38852;BME280;24605;50.092;9.182;2023-06-04T08:31:19;98244.19;;;19.80;30.72
38852;BME280;24605;50.092;9.182;2023-06-04T08:33:46;98235.59;;;19.60;31.96
38852;BME280;24605;50.092;9.182;2023-06-04T08:36:12;98214.75;;;19.38;31.90
38852;BME280;24605;50.092;9.182;2023-06-04T08:38:39;98240.41;;;19.51;31.70
38852;BME280;24605;50.092;9.182;2023-06-04T08:41:12;98238.44;;;19.65;31.92
38852;BME280;24605;50.092;9.182;2023-06-04T08:43:41;98240.97;;;19.97;30.96
38852;BME280;24605;50.092;9.182;2023-06-04T08:46:09;98235.78;;;20.02;30.72
38852;BME280;24605;50.092;9.182;2023-06-04T08:48:37;98234.31;;;19.87;30.18
38852;BME280;24605;50.092;9.182;2023-06-04T08:51:06;98244.22;;;20.17;32.05
38852;BME280;24605;50.092;9.182;2023-06-04T08:53:34;98245.22;;;19.79;30.39
38852;BME280;24605;50.092;9.182;2023-06-04T08:56:01;98241.69;;;20.04;31.35
38852;BME280;24605;50.092;9.182;2023-06-04T08:58:31;98245.63;;;20.01;30.71
38852;BME280;24605;50.092;9.182;2023-06-04T09:00:59;98241.28;;;19.88;30.68
38852;BME280;24605;50.092;9.182;2023-06-04T09:03:26;98240.75;;;19.98;32.10
38852;BME280;24605;50.092;9.182;2023-06-04T09:05:55;98240.59;;;20.12;31.46
38852;BME280;24605;50.092;9.182;2023-06-04T09:08:24;98237.84;;;20.18;32.55
38852;BME280;24605;50.092;9.182;2023-06-04T09:10:53;98252.56;;;20.21;31.49
38852;BME280;24605;50.092;9.182;2023-06-04T09:13:22;98254.13;;;20.41;31.92
38852;BME280;24605;50.092;9.182;2023-06-04T09:16:01;98260.34;;;20.53;30.98
38852;BME280;24605;50.092;9.182;2023-06-04T09:18:28;98262.03;;;20.47;30.47
38852;BME280;24605;50.092;9.182;2023-06-04T09:21:02;98252.22;;;19.99;30.43
38852;BME280;24605;50.092;9.182;2023-06-04T09:23:28;98256.09;;;20.15;32.18
38852;BME280;24605;50.092;9.182;2023-06-04T09:25:55;98258.56;;;20.16;30.72
38852;BME280;24605;50.092;9.182;2023-06-04T09:28:22;98238.97;;;20.11;30.79
38852;BME280;24605;50.092;9.182;2023-06-04T09:30:51;98261.88;;;20.12;30.03
38852;BME280;24605;50.092;9.182;2023-06-04T09:33:19;98267.03;;;20.25;30.48
38852;BME280;24605;50.092;9.182;2023-06-04T09:35:53;98270.63;;;20.49;29.62
38852;BME280;24605;50.092;9.182;2023-06-04T09:38:20;98256.19;;;20.27;31.59
38852;BME280;24605;50.092;9.182;2023-06-04T09:40:47;98256.44;;;20.37;31.19
38852;BME280;24605;50.092;9.182;2023-06-04T09:43:21;98258.38;;;20.60;29.89
38852;BME280;24605;50.092;9.182;2023-06-04T09:45:47;98249.56;;;20.78;29.94
38852;BME280;24605;50.092;9.182;2023-06-04T09:48:20;98253.03;;;20.79;29.53
38852;BME280;24605;50.092;9.182;2023-06-04T09:50:47;98253.97;;;20.85;28.12
38852;BME280;24605;50.092;9.182;2023-06-04T09:53:14;98252.50;;;20.89;28.27
38852;BME280;24605;50.092;9.182;2023-06-04T09:55:41;98251.19;;;20.79;29.00
38852;BME280;24605;50.092;9.182;2023-06-04T09:58:07;98253.38;;;20.82;28.08
38852;BME280;24605;50.092;9.182;2023-06-04T10:00:36;98253.06;;;20.91;27.82
38852;BME280;24605;50.092;9.182;2023-06-04T10:03:04;98248.81;;;21.02;27.25
38852;BME280;24605;50.092;9.182;2023-06-04T10:05:33;98243.69;;;21.00;27.79
38852;BME280;24605;50.092;9.182;2023-06-04T10:08:02;98241.88;;;20.70;27.50
38852;BME280;24605;50.092;9.182;2023-06-04T10:10:30;98232.00;;;21.01;28.03
38852;BME280;24605;50.092;9.182;2023-06-04T10:13:00;98236.53;;;21.01;28.33
38852;BME280;24605;50.092;9.182;2023-06-04T10:15:31;98243.31;;;20.85;27.91
38852;BME280;24605;50.092;9.182;2023-06-04T10:17:59;98237.22;;;21.08;27.48
38852;BME280;24605;50.092;9.182;2023-06-04T10:20:28;98246.97;;;21.14;27.67
38852;BME280;24605;50.092;9.182;2023-06-04T10:22:56;98241.97;;;21.29;27.24
38852;BME280;24605;50.092;9.182;2023-06-04T10:25:23;98247.44;;;21.35;26.91
38852;BME280;24605;50.092;9.182;2023-06-04T10:27:52;98243.75;;;21.24;26.90
38852;BME280;24605;50.092;9.182;2023-06-04T10:30:19;98241.53;;;21.21;27.75
38852;BME280;24605;50.092;9.182;2023-06-04T10:32:45;98235.84;;;21.17;27.96
38852;BME280;24605;50.092;9.182;2023-06-04T10:35:13;98218.31;;;21.09;27.44
38852;BME280;24605;50.092;9.182;2023-06-04T10:37:40;98246.28;;;21.31;28.34
38852;BME280;24605;50.092;9.182;2023-06-04T10:40:08;98246.50;;;21.17;28.70
38852;BME280;24605;50.092;9.182;2023-06-04T10:42:40;98238.25;;;21.42;27.49
38852;BME280;24605;50.092;9.182;2023-06-04T10:45:08;98249.09;;;21.59;28.59
38852;BME280;24605;50.092;9.182;2023-06-04T10:47:35;98234.78;;;21.54;27.97
38852;BME280;24605;50.092;9.182;2023-06-04T10:50:09;98240.00;;;21.01;28.04
38852;BME280;24605;50.092;9.182;2023-06-04T10:52:36;98235.16;;;21.45;28.03
38852;BME280;24605;50.092;9.182;2023-06-04T10:55:04;98232.81;;;21.49;27.63
38852;BME280;24605;50.092;9.182;2023-06-04T10:57:33;98237.97;;;21.63;28.01
38852;BME280;24605;50.092;9.182;2023-06-04T11:00:00;98237.47;;;21.78;27.55
38852;BME280;24605;50.092;9.182;2023-06-04T11:02:28;98240.72;;;21.80;26.69
38852;BME280;24605;50.092;9.182;2023-06-04T11:05:00;98214.16;;;21.61;27.26
38852;BME280;24605;50.092;9.182;2023-06-04T11:07:41;98231.22;;;21.72;26.90
38852;BME280;24605;50.092;9.182;2023-06-04T11:10:10;98231.06;;;21.79;28.59
38852;BME280;24605;50.092;9.182;2023-06-04T11:12:45;98233.75;;;21.67;28.10
38852;BME280;24605;50.092;9.182;2023-06-04T11:15:13;98233.75;;;21.90;27.12
38852;BME280;24605;50.092;9.182;2023-06-04T11:17:50;98225.00;;;21.95;26.32
38852;BME280;24605;50.092;9.182;2023-06-04T11:20:17;98233.81;;;22.07;28.04
38852;BME280;24605;50.092;9.182;2023-06-04T11:22:50;98241.72;;;22.02;27.09
38852;BME280;24605;50.092;9.182;2023-06-04T11:25:17;98232.50;;;22.10;25.82
38852;BME280;24605;50.092;9.182;2023-06-04T11:27:45;98230.19;;;22.14;26.15
38852;BME280;24605;50.092;9.182;2023-06-04T11:30:12;98227.03;;;22.17;27.88
38852;BME280;24605;50.092;9.182;2023-06-04T11:32:40;98230.03;;;22.20;26.33
38852;BME280;24605;50.092;9.182;2023-06-04T11:35:07;98212.72;;;21.94;26.46
38852;BME280;24605;50.092;9.182;2023-06-04T11:37:34;98221.69;;;21.76;26.80
38852;BME280;24605;50.092;9.182;2023-06-04T11:40:01;98217.56;;;21.97;26.54
38852;BME280;24605;50.092;9.182;2023-06-04T11:42:30;98215.03;;;22.02;25.30
38852;BME280;24605;50.092;9.182;2023-06-04T11:44:58;98229.97;;;22.15;25.54
38852;BME280;24605;50.092;9.182;2023-06-04T11:47:25;98228.38;;;22.43;25.59
38852;BME280;24605;50.092;9.182;2023-06-04T11:49:54;98222.81;;;22.62;25.00
38852;BME280;24605;50.092;9.182;2023-06-04T11:52:21;98214.47;;;22.29;25.02
38852;BME280;24605;50.092;9.182;2023-06-04T11:54:48;98220.13;;;22.45;26.21
38852;BME280;24605;50.092;9.182;2023-06-04T11:57:15;98210.34;;;22.10;24.97
38852;BME280;24605;50.092;9.182;2023-06-04T11:59:41;98221.75;;;22.34;25.95
38852;BME280;24605;50.092;9.182;2023-06-04T12:02:10;98185.09;;;22.29;26.35
38852;BME280;24605;50.092;9.182;2023-06-04T12:04:37;98211.09;;;22.80;24.42
38852;BME280;24605;50.092;9.182;2023-06-04T12:07:04;98210.03;;;22.81;24.61
38852;BME280;24605;50.092;9.182;2023-06-04T12:09:32;98199.56;;;22.62;24.88
38852;BME280;24605;50.092;9.182;2023-06-04T12:12:00;98199.50;;;23.08;24.64
38852;BME280;24605;50.092;9.182;2023-06-04T12:14:28;98207.94;;;23.00;23.53
38852;BME280;24605;50.092;9.182;2023-06-04T12:16:55;98199.28;;;23.27;23.20
38852;BME280;24605;50.092;9.182;2023-06-04T12:19:24;98171.13;;;23.07;23.63
38852;BME280;24605;50.092;9.182;2023-06-04T12:22:01;98197.84;;;23.41;23.03
38852;BME280;24605;50.092;9.182;2023-06-04T12:24:31;98199.44;;;23.59;23.40
38852;BME280;24605;50.092;9.182;2023-06-04T12:27:03;98214.69;;;23.81;22.72
38852;BME280;24605;50.092;9.182;2023-06-04T12:29:30;98204.59;;;24.05;22.71
38852;BME280;24605;50.092;9.182;2023-06-04T12:32:03;98197.38;;;24.06;23.36
38852;BME280;24605;50.092;9.182;2023-06-04T12:34:32;98197.66;;;23.87;23.90
38852;BME280;24605;50.092;9.182;2023-06-04T12:36:58;98195.41;;;24.23;23.24
38852;BME280;24605;50.092;9.182;2023-06-04T12:39:25;98197.94;;;24.35;23.03
38852;BME280;24605;50.092;9.182;2023-06-04T12:41:52;98201.03;;;24.49;22.25
38852;BME280;24605;50.092;9.182;2023-06-04T12:44:18;98199.91;;;24.45;21.76
38852;BME280;24605;50.092;9.182;2023-06-04T12:46:46;98196.25;;;24.29;22.49
38852;BME280;24605;50.092;9.182;2023-06-04T12:49:12;98194.78;;;23.72;22.62
38852;BME280;24605;50.092;9.182;2023-06-04T12:51:40;98195.31;;;24.13;21.60
38852;BME280;24605;50.092;9.182;2023-06-04T12:54:07;98192.81;;;24.34;23.66
38852;BME280;24605;50.092;9.182;2023-06-04T12:56:33;98202.53;;;24.40;22.87
38852;BME280;24605;50.092;9.182;2023-06-04T12:59:00;98189.44;;;24.44;22.77
38852;BME280;24605;50.092;9.182;2023-06-04T13:01:27;98171.19;;;24.40;22.79